Airport ID:KJWN
Update Time (UTC):13/11/2019 16:03
Wind Speed (Knots):3
Wind Direction (Magnetic):270
Temperature (°C):-2
Dew Point (°C):-8
Humidity (%):60
Altimeter (inHg):30.35
Density Altitude (Feet):
Visibility (Miles):10+
Clouds (Hundreds of feet):CLR
Present Weather:
METAR:METAR KJWN 131600Z AUTO 00000KT 10SM CLR M02/M09 A3035 RMK A01

The data displayed is for advisory purposes only and is not to be used for flight planning or operations.

This page is not automatically refreshed. Reload the page to see current data.